Terminal Aerodrome Forecast
Issued by NWS

Current Version | Previous Version | Graphics & Text | Print | Product List | Glossary On
Versions: 1 2 3 4 5 6 7 8 9 10 11 12 13 14 15 16 17 18 19 20 21 22 23 24
246
FTUS41 KILN 152322
TAFLUK
TAF
KLUK 152322Z 1600/1624 05004KT 2SM -RA BR OVC008
     FM160300 07003KT 1 1/2SM -DZ BR OVC006
     FM161500 12005KT 2SM BR OVC009
     FM161800 14007KT 4SM BR OVC015=

USA.gov is the U.S. government's official web portal to all federal, state and local government web resources and services.